createdAt,value
2017-05-24T00:00:58.225Z,0.26
2017-05-24T00:01:58.243Z,0.07
2017-05-24T00:02:58.233Z,0.44
2017-05-24T00:03:58.204Z,0.16
2017-05-24T00:04:58.236Z,0.25
2017-05-24T00:05:58.199Z,0.28
2017-05-24T00:06:58.242Z,0.35
2017-05-24T00:07:58.232Z,0.62
2017-05-24T00:08:58.229Z,0.53
2017-05-24T00:09:58.227Z,0.34
2017-05-24T00:10:58.237Z,0.35
2017-05-24T00:11:58.264Z,0.16
2017-05-24T00:12:58.214Z,0.08
2017-05-24T00:13:58.246Z,0.25
2017-05-24T00:14:58.247Z,0.25
2017-05-24T00:15:58.242Z,0.45
2017-05-24T00:16:58.234Z,0.25
2017-05-24T00:17:58.252Z,0.26
2017-05-24T00:18:58.218Z,0.25
2017-05-24T00:19:58.216Z,0.53
2017-05-24T00:20:58.245Z,0.07
2017-05-24T00:21:58.225Z,0.25
2017-05-24T00:22:58.246Z,0.44
2017-05-24T00:23:58.244Z,0.25
2017-05-24T00:24:58.218Z,0.07
2017-05-24T00:25:58.246Z,0.07
2017-05-24T00:26:58.241Z,0.08
2017-05-24T00:27:58.218Z,0.16
2017-05-24T00:28:58.262Z,0.26
2017-05-24T00:29:58.242Z,0.07
2017-05-24T00:30:58.243Z,0.07
2017-05-24T00:31:58.245Z,0.07
2017-05-24T00:32:58.243Z,0.07
2017-05-24T00:33:58.240Z,0.07
2017-05-24T00:34:58.245Z,0.07
2017-05-24T00:35:58.238Z,0.07
2017-05-24T00:36:58.224Z,0.07
2017-05-24T00:37:58.226Z,0.07
2017-05-24T00:38:58.231Z,0.07
2017-05-24T00:39:58.243Z,0.07
2017-05-24T00:40:58.256Z,0.07
2017-05-24T00:41:58.229Z,0.07
2017-05-24T00:42:58.228Z,0.07
2017-05-24T00:43:58.232Z,0.44
2017-05-24T00:44:58.230Z,0.16
2017-05-24T00:45:58.233Z,0.35
2017-05-24T00:46:58.217Z,0.34
2017-05-24T00:47:58.282Z,0.07
2017-05-24T00:48:58.220Z,0.25
2017-05-24T00:49:58.225Z,0.07
2017-05-24T00:50:58.225Z,0.07
2017-05-24T00:51:58.222Z,0.20
2017-05-24T00:52:58.221Z,0.07
2017-05-24T00:53:58.296Z,0.07
2017-05-24T00:54:58.234Z,0.35
2017-05-24T00:55:58.227Z,0.07
2017-05-24T00:56:58.258Z,0.07
2017-05-24T00:57:58.274Z,0.25
2017-05-24T00:58:58.263Z,0.07
2017-05-24T00:59:58.245Z,0.25
2017-05-24T01:00:58.310Z,0.44
2017-05-24T01:01:58.258Z,0.07
2017-05-24T01:02:58.244Z,0.25
2017-05-24T01:03:58.262Z,0.07
2017-05-24T01:04:58.266Z,0.07
2017-05-24T01:05:58.264Z,0.07
2017-05-24T01:06:58.275Z,0.07
2017-05-24T01:07:58.273Z,0.25
2017-05-24T01:08:58.315Z,0.07
2017-05-24T01:09:58.251Z,0.07
2017-05-24T01:10:58.263Z,0.07
2017-05-24T01:11:58.279Z,0.07
2017-05-24T01:12:58.274Z,0.07
2017-05-24T01:13:58.315Z,0.07
2017-05-24T01:14:58.246Z,0.07
2017-05-24T01:15:58.281Z,0.07
2017-05-24T01:16:58.281Z,0.07
2017-05-24T01:17:58.246Z,0.25
2017-05-24T01:18:58.299Z,0.18
2017-05-24T01:19:58.270Z,0.07
2017-05-24T01:20:58.322Z,0.07
2017-05-24T01:21:58.321Z,0.25
2017-05-24T01:22:58.283Z,0.07
2017-05-24T01:23:58.255Z,0.44
2017-05-24T01:24:58.251Z,0.25
2017-05-24T01:25:58.324Z,0.16
2017-05-24T01:26:58.387Z,0.07
2017-05-24T01:27:58.283Z,0.62
2017-05-24T01:28:58.282Z,0.07
2017-05-24T01:29:58.282Z,0.07
2017-05-24T01:30:58.282Z,0.07
2017-05-24T01:31:58.282Z,0.07
2017-05-24T01:32:58.280Z,0.07
2017-05-24T01:33:58.277Z,0.07
2017-05-24T01:34:58.310Z,0.16
2017-05-24T01:35:58.283Z,0.07
2017-05-24T01:36:59.340Z,0.07
2017-05-24T01:37:58.287Z,0.07
2017-05-24T01:38:58.329Z,0.07
2017-05-24T01:39:58.330Z,0.07
2017-05-24T01:40:58.333Z,0.07
2017-05-24T01:41:58.290Z,0.07
2017-05-24T01:42:58.265Z,0.07
2017-05-24T01:43:58.474Z,0.06
2017-05-24T01:44:58.262Z,0.06
2017-05-24T01:45:58.259Z,0.06
2017-05-24T01:46:58.251Z,0.06
2017-05-24T01:47:58.260Z,0.06
2017-05-24T01:48:58.254Z,0.07
2017-05-24T01:49:58.258Z,0.07
2017-05-24T01:50:58.252Z,0.06
2017-05-24T01:51:58.265Z,0.06
2017-05-24T01:52:58.257Z,0.07
2017-05-24T01:53:58.255Z,0.07
2017-05-24T01:54:58.256Z,0.06
2017-05-24T01:55:58.256Z,0.06
2017-05-24T01:56:58.291Z,0.06
2017-05-24T01:57:58.295Z,0.06
2017-05-24T01:58:58.262Z,0.06
2017-05-24T01:59:58.263Z,0.06
2017-05-24T02:00:58.265Z,0.06
2017-05-24T02:01:58.300Z,0.07
2017-05-24T02:02:58.293Z,0.24
2017-05-24T02:03:58.343Z,0.07
2017-05-24T02:04:58.332Z,0.06
2017-05-24T02:05:58.301Z,0.06
2017-05-24T02:06:58.305Z,0.07
2017-05-24T02:07:58.292Z,0.06
2017-05-24T02:08:58.296Z,0.07
2017-05-24T02:09:58.295Z,0.07
2017-05-24T02:10:58.294Z,0.07
2017-05-24T02:11:58.292Z,0.06
2017-05-24T02:12:58.296Z,0.06
2017-05-24T02:13:58.293Z,0.06
2017-05-24T02:14:58.304Z,0.07
2017-05-24T02:15:58.292Z,0.06
2017-05-24T02:16:58.257Z,0.06
2017-05-24T02:17:58.311Z,0.06
2017-05-24T02:18:58.310Z,0.07
2017-05-24T02:19:58.332Z,0.06
2017-05-24T02:20:58.295Z,0.07
2017-05-24T02:21:58.309Z,0.06
2017-05-24T02:22:58.301Z,0.06
2017-05-24T02:23:58.358Z,0.06
2017-05-24T02:24:58.314Z,0.06
2017-05-24T02:25:58.313Z,0.06
2017-05-24T02:26:58.313Z,0.07
2017-05-24T02:27:58.318Z,0.07
2017-05-24T02:28:58.358Z,0.07
2017-05-24T02:29:58.314Z,0.07
2017-05-24T02:30:58.304Z,0.06
2017-05-24T02:31:58.312Z,0.06
2017-05-24T02:32:58.306Z,0.07
2017-05-24T02:33:58.336Z,0.07
2017-05-24T02:34:58.341Z,0.25
2017-05-24T02:35:58.322Z,0.07
2017-05-24T02:36:58.292Z,0.07
2017-05-24T02:37:58.283Z,0.16
2017-05-24T02:38:58.312Z,0.06
2017-05-24T02:39:58.310Z,0.24
2017-05-24T02:40:58.319Z,0.07
2017-05-24T02:41:58.425Z,0.06
2017-05-24T02:42:58.326Z,0.06
2017-05-24T02:43:58.317Z,0.07
2017-05-24T02:44:58.318Z,0.06
2017-05-24T02:45:58.327Z,0.07
2017-05-24T02:46:58.326Z,0.06
2017-05-24T02:47:58.325Z,0.06
2017-05-24T02:48:58.328Z,0.07
2017-05-24T02:49:58.369Z,0.07
2017-05-24T02:50:58.365Z,0.07
2017-05-24T02:51:58.320Z,0.07
2017-05-24T02:52:58.326Z,0.07
2017-05-24T02:53:58.323Z,0.07
2017-05-24T02:54:58.331Z,0.44
2017-05-24T02:55:58.371Z,0.44
2017-05-24T02:56:58.301Z,0.53
2017-05-24T02:57:58.326Z,0.34
2017-05-24T02:58:58.307Z,0.16
2017-05-24T02:59:58.321Z,0.25
2017-05-24T03:00:58.426Z,0.52
2017-05-24T03:01:58.329Z,0.44
2017-05-24T03:02:58.327Z,0.07
2017-05-24T03:03:58.525Z,0.07
2017-05-24T03:04:58.326Z,0.07
2017-05-24T03:05:58.304Z,0.06
2017-05-24T03:06:58.299Z,0.06
2017-05-24T03:07:58.325Z,0.06
2017-05-24T03:08:58.376Z,0.07
2017-05-24T03:09:58.318Z,0.06
2017-05-24T03:10:58.322Z,0.06
2017-05-24T03:11:58.388Z,0.06
2017-05-24T03:12:58.328Z,0.06
2017-05-24T03:13:58.326Z,0.06
2017-05-24T03:14:58.329Z,0.06
2017-05-24T03:15:58.326Z,0.24
2017-05-24T03:16:58.329Z,0.06
2017-05-24T03:17:58.335Z,0.06
2017-05-24T03:18:58.533Z,0.06
2017-05-24T03:19:58.331Z,0.06
2017-05-24T03:20:58.536Z,0.07
2017-05-24T03:21:58.333Z,0.06
2017-05-24T03:22:58.346Z,0.06
2017-05-24T03:23:58.333Z,0.07
2017-05-24T03:24:58.359Z,0.07
2017-05-24T03:25:58.332Z,0.06
2017-05-24T03:26:58.339Z,0.06
2017-05-24T03:27:58.346Z,0.06
2017-05-24T03:28:58.347Z,0.06
2017-05-24T03:29:58.314Z,0.06
2017-05-24T03:30:58.339Z,0.06
2017-05-24T03:31:58.349Z,0.06
2017-05-24T03:32:58.334Z,0.06
2017-05-24T03:33:58.358Z,0.06
2017-05-24T03:34:58.355Z,0.06
2017-05-24T03:35:58.314Z,0.06
2017-05-24T03:36:58.343Z,0.06
2017-05-24T03:37:58.348Z,0.06
2017-05-24T03:38:58.341Z,0.06
2017-05-24T03:39:58.346Z,0.06
2017-05-24T03:40:58.359Z,0.06
2017-05-24T03:41:58.340Z,0.06
2017-05-24T03:42:58.343Z,0.06
2017-05-24T03:43:58.339Z,0.06
2017-05-24T03:44:58.335Z,0.06
2017-05-24T03:45:58.343Z,0.06
2017-05-24T03:46:58.393Z,0.06
2017-05-24T03:47:58.333Z,0.06
2017-05-24T03:48:58.324Z,0.06
2017-05-24T03:49:58.332Z,0.06
2017-05-24T03:50:58.324Z,0.06
2017-05-24T03:51:58.327Z,0.25
2017-05-24T03:52:58.328Z,0.07
2017-05-24T03:53:58.327Z,0.07
2017-05-24T03:54:58.330Z,0.07
2017-05-24T03:55:58.326Z,0.06
2017-05-24T03:56:58.331Z,0.07
2017-05-24T03:57:58.353Z,0.06
2017-05-24T03:58:58.354Z,0.07
2017-05-24T03:59:58.332Z,0.06
2017-05-24T04:00:58.350Z,0.06
2017-05-24T04:01:58.351Z,0.07
2017-05-24T04:02:58.348Z,0.07
2017-05-24T04:03:58.368Z,0.07
2017-05-24T04:04:58.348Z,0.06
2017-05-24T04:05:58.555Z,0.07
2017-05-24T04:06:58.348Z,0.06
2017-05-24T04:07:58.289Z,0.07
2017-05-24T04:08:58.301Z,0.16
2017-05-24T04:09:58.290Z,0.07
2017-05-24T04:10:58.253Z,0.07
2017-05-24T04:11:58.303Z,0.07
2017-05-24T04:12:58.306Z,0.07
2017-05-24T04:13:58.263Z,0.07
2017-05-24T04:14:58.318Z,0.07
2017-05-24T04:15:58.293Z,0.06
2017-05-24T04:16:58.307Z,0.34
2017-05-24T04:17:58.331Z,0.07
2017-05-24T04:18:58.406Z,0.07
2017-05-24T04:19:58.360Z,0.07
2017-05-24T04:20:58.338Z,0.07
2017-05-24T04:21:58.422Z,0.07
2017-05-24T04:22:58.373Z,0.25
2017-05-24T04:23:58.381Z,0.44
2017-05-24T04:24:58.364Z,0.71
2017-05-24T04:25:58.353Z,0.53
2017-05-24T04:26:58.378Z,0.25
2017-05-24T04:27:58.365Z,0.16
2017-05-24T04:28:58.360Z,0.07
2017-05-24T04:29:58.362Z,0.34
2017-05-24T04:30:58.360Z,0.44
2017-05-24T04:31:58.359Z,0.25
2017-05-24T04:32:58.343Z,0.07
2017-05-24T04:33:58.470Z,0.25
2017-05-24T04:34:58.368Z,0.26
2017-05-24T04:35:58.370Z,0.07
2017-05-24T04:36:58.370Z,0.53
2017-05-24T04:37:58.365Z,0.07
2017-05-24T04:38:58.382Z,0.07
2017-05-24T04:39:58.366Z,0.35
2017-05-24T04:40:58.378Z,0.64
2017-05-24T04:41:58.386Z,0.25
2017-05-24T04:42:58.370Z,0.53
2017-05-24T04:43:58.424Z,0.35
2017-05-24T04:44:58.403Z,0.35
2017-05-24T04:45:58.540Z,0.98
2017-05-24T04:46:58.381Z,1.47
2017-05-24T04:47:58.478Z,0.72
2017-05-24T04:48:58.372Z,1.10
2017-05-24T04:49:58.577Z,0.82
2017-05-24T04:50:58.374Z,0.61
2017-05-24T04:51:58.333Z,0.82
2017-05-24T04:52:58.428Z,0.35
2017-05-24T04:53:58.366Z,1.38
2017-05-24T04:54:58.371Z,1.19
2017-05-24T04:55:58.378Z,1.10
2017-05-24T04:56:58.581Z,0.63
2017-05-24T04:57:58.362Z,0.63
2017-05-24T04:58:58.362Z,0.44
2017-05-24T04:59:58.359Z,0.91
2017-05-24T05:00:58.363Z,0.45
2017-05-24T05:01:58.364Z,0.53
2017-05-24T05:02:58.361Z,1.47
2017-05-24T05:03:58.362Z,1.36
2017-05-24T05:04:58.364Z,0.91
2017-05-24T05:05:58.361Z,1.73
2017-05-24T05:06:58.364Z,1.00
2017-05-24T05:07:58.393Z,0.59
2017-05-24T05:08:58.384Z,0.65
2017-05-24T05:09:58.387Z,1.00
2017-05-24T05:10:58.405Z,1.12
2017-05-24T05:11:58.384Z,0.72
2017-05-24T05:12:58.383Z,0.91
2017-05-24T05:13:58.384Z,1.00
2017-05-24T05:14:58.391Z,0.82
2017-05-24T05:15:58.440Z,1.37
2017-05-24T05:16:58.394Z,0.53
2017-05-24T05:17:58.366Z,1.57
2017-05-24T05:18:59.499Z,1.73
2017-05-24T05:19:58.393Z,1.00
2017-05-24T05:20:58.386Z,0.72
2017-05-24T05:21:58.389Z,1.27
2017-05-24T05:22:58.387Z,0.82
2017-05-24T05:23:58.386Z,0.63
2017-05-24T05:24:58.386Z,1.28
2017-05-24T05:25:58.414Z,0.91
2017-05-24T05:26:58.382Z,1.01
2017-05-24T05:27:58.450Z,0.53
2017-05-24T05:28:58.379Z,0.72
2017-05-24T05:29:58.375Z,0.90
2017-05-24T05:30:58.376Z,1.38
2017-05-24T05:31:58.375Z,1.80
2017-05-24T05:32:58.377Z,1.46
2017-05-24T05:33:58.376Z,0.60
2017-05-24T05:34:58.381Z,0.90
2017-05-24T05:35:58.376Z,0.62
2017-05-24T05:36:58.375Z,0.82
2017-05-24T05:37:58.385Z,1.10
2017-05-24T05:38:58.385Z,0.63
2017-05-24T05:39:58.390Z,0.72
2017-05-24T05:40:58.388Z,0.54
2017-05-24T05:41:58.387Z,0.44
2017-05-24T05:42:58.387Z,1.10
2017-05-24T05:43:58.386Z,0.72
2017-05-24T05:44:58.387Z,1.28
2017-05-24T05:45:58.390Z,0.54
2017-05-24T05:46:58.380Z,0.35
2017-05-24T05:47:58.405Z,0.64
2017-05-24T05:48:58.390Z,0.35
2017-05-24T05:49:58.430Z,0.54
2017-05-24T05:50:58.390Z,0.72
2017-05-24T05:51:58.409Z,0.84
2017-05-24T05:52:58.405Z,1.47
2017-05-24T05:53:58.405Z,0.83
2017-05-24T05:54:58.431Z,1.20
2017-05-24T05:55:58.418Z,0.35
2017-05-24T05:56:58.418Z,0.91
2017-05-24T05:57:58.418Z,1.01
2017-05-24T05:58:58.382Z,1.35
2017-05-24T05:59:58.388Z,0.77
2017-05-24T06:00:58.486Z,0.72
2017-05-24T06:01:58.387Z,1.02
2017-05-24T06:02:58.385Z,0.72
2017-05-24T06:03:58.384Z,0.45
2017-05-24T06:04:58.493Z,0.91
2017-05-24T06:05:58.384Z,1.00
2017-05-24T06:06:58.397Z,1.01
2017-05-24T06:07:58.391Z,0.68
2017-05-24T06:08:58.392Z,0.73
2017-05-24T06:09:58.390Z,0.78
2017-05-24T06:10:58.398Z,0.26
2017-05-24T06:11:58.389Z,1.39
2017-05-24T06:12:58.394Z,0.83
2017-05-24T06:13:58.393Z,0.54
2017-05-24T06:14:58.394Z,1.20
2017-05-24T06:15:58.396Z,0.73
2017-05-24T06:16:58.398Z,0.65
2017-05-24T06:17:58.399Z,0.91
2017-05-24T06:18:58.447Z,0.35
2017-05-24T06:19:58.429Z,0.45
2017-05-24T06:20:58.448Z,1.38
2017-05-24T06:21:58.388Z,1.29
2017-05-24T06:22:58.426Z,2.02
2017-05-24T06:23:58.433Z,1.01
2017-05-24T06:24:58.433Z,0.84
2017-05-24T06:25:58.433Z,1.34
2017-05-24T06:26:58.393Z,0.54
2017-05-24T06:27:58.426Z,0.80
2017-05-24T06:28:58.423Z,0.73
2017-05-24T06:29:58.413Z,0.82
2017-05-24T06:30:58.407Z,0.91
2017-05-24T06:31:58.414Z,0.91
2017-05-24T06:32:58.411Z,0.45
2017-05-24T06:33:58.412Z,0.46
2017-05-24T06:34:58.410Z,0.45
2017-05-24T06:35:58.415Z,0.71
2017-05-24T06:36:58.417Z,0.63
2017-05-24T06:37:58.421Z,0.54
2017-05-24T06:38:58.475Z,0.91
2017-05-24T06:39:58.443Z,0.65
2017-05-24T06:40:58.431Z,0.73
2017-05-24T06:41:58.442Z,0.97
2017-05-24T06:42:58.438Z,1.06
2017-05-24T06:43:58.462Z,0.73
2017-05-24T06:44:58.441Z,1.06
2017-05-24T06:45:58.507Z,0.91
2017-05-24T06:46:58.461Z,0.26
2017-05-24T06:47:58.438Z,1.10
2017-05-24T06:48:58.413Z,0.82
2017-05-24T06:49:58.412Z,0.82
2017-05-24T06:50:58.413Z,0.36
2017-05-24T06:51:58.412Z,0.45
2017-05-24T06:52:58.416Z,0.99
2017-05-24T06:53:58.411Z,1.76
2017-05-24T06:54:58.417Z,1.21
2017-05-24T06:55:58.418Z,1.09
2017-05-24T06:56:58.355Z,1.29
2017-05-24T06:57:58.416Z,0.96
2017-05-24T06:58:58.446Z,0.64
2017-05-24T06:59:58.445Z,1.01
2017-05-24T07:00:58.471Z,1.01
2017-05-24T07:01:58.444Z,1.23
2017-05-24T07:02:58.408Z,0.46
2017-05-24T07:03:58.460Z,1.11
2017-05-24T07:04:58.471Z,0.73
2017-05-24T07:05:58.430Z,0.92
2017-05-24T07:06:58.474Z,1.11
2017-05-24T07:07:58.555Z,0.45
2017-05-24T07:08:58.480Z,1.02
2017-05-24T07:09:58.410Z,0.54
2017-05-24T07:10:58.477Z,1.21
2017-05-24T07:11:58.454Z,1.02
2017-05-24T07:12:58.457Z,0.83
2017-05-24T07:13:58.415Z,1.11
2017-05-24T07:14:58.453Z,0.93
2017-05-24T07:15:58.562Z,0.46
2017-05-24T07:16:58.458Z,0.83
2017-05-24T07:17:58.458Z,0.73
2017-05-24T07:18:58.439Z,1.30
2017-05-24T07:19:58.439Z,0.92
2017-05-24T07:20:58.439Z,0.64
2017-05-24T07:21:58.439Z,0.83
2017-05-24T07:22:58.442Z,1.20
2017-05-24T07:23:58.439Z,1.77
2017-05-24T07:24:58.440Z,1.11
2017-05-24T07:25:58.440Z,0.55
2017-05-24T07:26:58.440Z,1.47
2017-05-24T07:27:58.441Z,0.60
2017-05-24T07:28:58.438Z,1.11
2017-05-24T07:29:58.445Z,1.20
2017-05-24T07:30:58.467Z,0.92
2017-05-24T07:31:58.444Z,1.77
2017-05-24T07:32:58.445Z,0.55
2017-05-24T07:33:58.463Z,1.02
2017-05-24T07:34:58.468Z,0.73
2017-05-24T07:35:58.525Z,0.46
2017-05-24T07:36:58.446Z,0.64
2017-05-24T07:37:58.466Z,1.40
2017-05-24T07:38:58.458Z,1.11
2017-05-24T07:39:58.463Z,0.55
2017-05-24T07:40:58.465Z,0.74
2017-05-24T07:41:58.436Z,1.35
2017-05-24T07:42:58.491Z,0.83
2017-05-24T07:43:58.577Z,1.43
2017-05-24T07:44:58.465Z,0.92
2017-05-24T07:45:58.515Z,0.64
2017-05-24T07:46:58.443Z,0.50
2017-05-24T07:47:58.427Z,2.05
2017-05-24T07:48:58.465Z,0.43
2017-05-24T07:49:58.451Z,1.29
2017-05-24T07:50:58.477Z,1.49
2017-05-24T07:51:58.466Z,1.58
2017-05-24T07:52:58.466Z,0.71
2017-05-24T07:53:58.480Z,1.02
2017-05-24T07:54:58.498Z,0.74
2017-05-24T07:55:58.472Z,1.21
2017-05-24T07:56:58.434Z,2.07
2017-05-24T07:57:58.468Z,1.11
2017-05-24T07:58:58.478Z,1.47
2017-05-24T07:59:58.506Z,1.01
2017-05-24T08:00:58.485Z,1.34
2017-05-24T08:01:58.591Z,1.48
2017-05-24T08:02:58.480Z,1.01
2017-05-24T08:03:58.476Z,1.21
2017-05-24T08:04:58.592Z,2.03
2017-05-24T08:05:58.482Z,1.48
2017-05-24T08:06:58.479Z,0.64
2017-05-24T08:07:58.523Z,1.67
2017-05-24T08:08:58.489Z,1.86
2017-05-24T08:09:58.488Z,1.13
2017-05-24T08:10:58.503Z,1.58
2017-05-24T08:11:58.482Z,1.77
2017-05-24T08:12:58.487Z,1.59
2017-05-24T08:13:58.482Z,1.49
2017-05-24T08:14:58.485Z,1.07
2017-05-24T08:15:58.477Z,1.77
2017-05-24T08:16:58.473Z,1.12
2017-05-24T08:17:58.464Z,1.43
2017-05-24T08:18:58.421Z,1.22
2017-05-24T08:19:58.410Z,0.92
2017-05-24T08:20:58.366Z,2.04
2017-05-24T08:21:58.468Z,1.39
2017-05-24T08:22:58.367Z,0.54
2017-05-24T08:23:58.440Z,2.70
2017-05-24T08:24:58.379Z,1.69
2017-05-24T08:25:58.376Z,1.78
2017-05-24T08:26:58.438Z,1.21
2017-05-24T08:27:58.427Z,0.83
2017-05-24T08:28:58.498Z,1.20
2017-05-24T08:29:58.431Z,1.22
2017-05-24T08:30:58.521Z,1.96
2017-05-24T08:31:58.518Z,1.84
2017-05-24T08:32:58.501Z,1.58
2017-05-24T08:33:58.498Z,0.93
2017-05-24T08:34:58.497Z,2.77
2017-05-24T08:35:58.474Z,1.87
2017-05-24T08:36:58.505Z,2.88
2017-05-24T08:37:58.607Z,1.28
2017-05-24T08:38:58.503Z,1.86
2017-05-24T08:39:58.485Z,2.58
2017-05-24T08:40:58.507Z,0.83
2017-05-24T08:42:58.493Z,3.39
2017-05-24T08:43:58.483Z,1.39
2017-05-24T08:44:58.503Z,1.58
2017-05-24T08:45:58.511Z,1.16
2017-05-24T08:46:58.505Z,2.43
2017-05-24T08:47:58.611Z,1.97
2017-05-24T08:48:58.613Z,1.39
2017-05-24T08:49:58.464Z,0.54
2017-05-24T08:50:58.506Z,1.30
2017-05-24T08:51:58.506Z,2.84
2017-05-24T08:52:58.509Z,2.34
2017-05-24T08:53:58.502Z,1.11
2017-05-24T08:54:58.502Z,1.46
2017-05-24T08:55:58.514Z,1.49
2017-05-24T08:56:58.597Z,0.83
2017-05-24T08:57:58.469Z,0.64
2017-05-24T08:58:58.512Z,1.45
2017-05-24T08:59:58.507Z,1.57
2017-05-24T09:00:58.515Z,1.67
2017-05-24T09:01:58.509Z,0.92
2017-05-24T09:02:58.526Z,1.09
2017-05-24T09:03:58.495Z,1.11
2017-05-24T09:04:58.533Z,2.16
2017-05-24T09:05:58.528Z,1.77
2017-05-24T09:06:58.537Z,0.94
2017-05-24T09:07:58.537Z,2.36
2017-05-24T09:08:58.519Z,1.21
2017-05-24T09:09:58.507Z,3.67
2017-05-24T09:10:58.511Z,1.40
2017-05-24T09:11:58.494Z,0.90
2017-05-24T09:12:58.517Z,1.11
2017-05-24T09:13:58.518Z,1.30
2017-05-24T09:14:58.508Z,1.95
2017-05-24T09:15:58.494Z,1.24
2017-05-24T09:16:58.518Z,0.74
2017-05-24T09:17:58.522Z,1.67
2017-05-24T09:18:58.519Z,1.02
2017-05-24T09:19:58.527Z,1.37
2017-05-24T09:20:58.517Z,1.97
2017-05-24T09:21:58.629Z,1.34
2017-05-24T09:22:58.515Z,2.12
2017-05-24T09:23:58.523Z,1.82
2017-05-24T09:24:58.520Z,0.92
2017-05-24T09:25:58.542Z,1.30
2017-05-24T09:26:58.482Z,1.69
2017-05-24T09:27:58.524Z,1.58
2017-05-24T09:28:58.550Z,0.92
2017-05-24T09:29:58.546Z,2.43
2017-05-24T09:30:58.528Z,1.86
2017-05-24T09:31:58.530Z,2.70
2017-05-24T09:32:58.528Z,1.75
2017-05-24T09:33:58.503Z,1.10
2017-05-24T09:34:58.525Z,1.29
2017-05-24T09:35:58.534Z,1.21
2017-05-24T09:36:58.528Z,1.58
2017-05-24T09:37:58.539Z,1.21
2017-05-24T09:38:58.536Z,1.10
2017-05-24T09:39:58.487Z,1.03
2017-05-24T09:40:58.434Z,1.30
2017-05-24T09:41:58.421Z,1.90
2017-05-24T09:42:58.421Z,0.74
2017-05-24T09:43:58.428Z,1.97
2017-05-24T09:44:58.417Z,1.49
2017-05-24T09:45:58.423Z,1.68
2017-05-24T09:46:58.475Z,1.02
2017-05-24T09:47:58.475Z,0.83
2017-05-24T09:48:58.480Z,0.83
2017-05-24T09:49:58.503Z,1.39
2017-05-24T09:50:58.502Z,1.30
2017-05-24T09:51:58.513Z,1.36
2017-05-24T09:52:58.510Z,1.49
2017-05-24T09:53:58.507Z,1.22
2017-05-24T09:54:58.510Z,0.54
2017-05-24T09:55:58.506Z,2.05
2017-05-24T09:56:58.511Z,1.02
2017-05-24T09:57:58.513Z,1.49
2017-05-24T09:58:58.516Z,2.34
2017-05-24T09:59:58.536Z,1.30
2017-05-24T10:00:58.543Z,0.74
2017-05-24T10:01:58.547Z,2.54
2017-05-24T10:02:58.643Z,1.39
2017-05-24T10:03:58.504Z,0.74
2017-05-24T10:04:58.638Z,0.95
2017-05-24T10:05:58.548Z,1.77
2017-05-24T10:06:58.650Z,3.28
2017-05-24T10:07:58.547Z,2.04
2017-05-24T10:08:58.548Z,0.73
2017-05-24T10:09:58.528Z,1.13
2017-05-24T10:10:58.528Z,1.69
2017-05-24T10:11:58.527Z,1.60
2017-05-24T10:12:58.555Z,1.68
2017-05-24T10:13:58.526Z,1.01
2017-05-24T10:14:58.529Z,0.76
2017-05-24T10:15:58.530Z,2.67
2017-05-24T10:16:58.530Z,1.86
2017-05-24T10:17:58.530Z,1.96
2017-05-24T10:18:58.531Z,1.20
2017-05-24T10:19:58.546Z,1.91
2017-05-24T10:20:58.549Z,1.36
2017-05-24T10:21:58.571Z,2.43
2017-05-24T10:22:58.556Z,1.01
2017-05-24T10:23:58.554Z,2.00
2017-05-24T10:24:58.545Z,1.73
2017-05-24T10:25:58.554Z,1.87
2017-05-24T10:26:58.559Z,1.87
2017-05-24T10:27:58.558Z,1.31
2017-05-24T10:28:58.531Z,1.87
2017-05-24T10:29:58.548Z,1.83
2017-05-24T10:30:58.519Z,1.85
2017-05-24T10:31:58.555Z,0.95
2017-05-24T10:32:58.559Z,3.34
2017-05-24T10:33:58.556Z,1.11
2017-05-24T10:34:58.538Z,1.11
2017-05-24T10:35:58.558Z,1.11
2017-05-24T10:36:58.539Z,0.46
2017-05-24T10:37:58.565Z,0.55
2017-05-24T10:38:58.517Z,1.49
2017-05-24T10:39:58.538Z,1.30
2017-05-24T10:40:58.564Z,1.30
2017-05-24T10:41:58.559Z,0.83
2017-05-24T10:42:58.671Z,0.55
2017-05-24T10:43:58.556Z,2.27
2017-05-24T10:44:58.625Z,0.46
2017-05-24T10:45:58.568Z,0.95
2017-05-24T10:46:58.569Z,2.68
2017-05-24T10:47:58.566Z,1.11
2017-05-24T10:48:58.591Z,0.74
2017-05-24T10:49:58.547Z,0.98
2017-05-24T10:50:58.547Z,0.83
2017-05-24T10:51:58.547Z,1.56
2017-05-24T10:52:58.543Z,1.40
2017-05-24T10:53:58.550Z,2.05
2017-05-24T10:54:58.548Z,1.02
2017-05-24T10:55:58.630Z,1.30
2017-05-24T10:56:58.630Z,0.55
2017-05-24T10:57:58.547Z,1.58
2017-05-24T10:58:58.551Z,1.58
2017-05-24T10:59:58.550Z,2.97
2017-05-24T11:00:58.576Z,1.11
2017-05-24T11:01:58.568Z,1.39
2017-05-24T11:02:58.571Z,0.38
2017-05-24T11:03:58.567Z,1.48
2017-05-24T11:04:58.638Z,0.83
2017-05-24T11:05:58.566Z,1.31
2017-05-24T11:06:58.575Z,1.29
2017-05-24T11:07:58.581Z,0.92
2017-05-24T11:08:58.577Z,1.29
2017-05-24T11:09:58.579Z,0.93
2017-05-24T11:10:58.593Z,0.75
2017-05-24T11:11:58.568Z,0.83
2017-05-24T11:12:58.578Z,1.02
2017-05-24T11:13:58.555Z,1.03
2017-05-24T11:14:58.577Z,1.39
2017-05-24T11:15:58.583Z,1.11
2017-05-24T11:16:58.580Z,0.74
2017-05-24T11:17:58.688Z,1.68
2017-05-24T11:18:58.561Z,0.73
2017-05-24T11:19:58.585Z,1.96
2017-05-24T11:20:58.601Z,1.67
2017-05-24T11:21:58.590Z,0.85
2017-05-24T11:22:58.562Z,1.28
2017-05-24T11:23:58.588Z,1.12
2017-05-24T11:24:58.584Z,0.54
2017-05-24T11:25:58.585Z,0.73
2017-05-24T11:26:58.580Z,1.11
2017-05-24T11:27:58.586Z,1.29
2017-05-24T11:28:58.583Z,1.01
2017-05-24T11:29:58.582Z,0.91
2017-05-24T11:30:58.588Z,1.39
2017-05-24T11:31:58.591Z,1.01
2017-05-24T11:32:58.592Z,1.01
2017-05-24T11:33:58.613Z,1.11
2017-05-24T11:34:58.569Z,1.21
2017-05-24T11:35:58.587Z,0.96
2017-05-24T11:36:58.599Z,1.35
2017-05-24T11:38:58.592Z,0.83
2017-05-24T11:39:58.557Z,1.30
2017-05-24T11:40:58.562Z,2.05
2017-05-24T11:41:58.560Z,1.72
2017-05-24T11:42:58.562Z,1.30
2017-05-24T11:43:58.561Z,2.26
2017-05-24T11:44:58.563Z,1.68
2017-05-24T11:45:58.565Z,1.52
2017-05-24T11:46:58.567Z,0.65
2017-05-24T11:47:58.564Z,1.59
2017-05-24T11:48:58.567Z,1.08
2017-05-24T11:49:58.579Z,0.64
2017-05-24T11:50:58.682Z,1.02
2017-05-24T11:51:58.579Z,0.57
2017-05-24T11:52:58.584Z,1.67
2017-05-24T11:53:58.577Z,1.70
2017-05-24T11:54:58.581Z,2.14
2017-05-24T11:55:58.670Z,0.83
2017-05-24T11:56:58.581Z,2.05
2017-05-24T11:57:58.582Z,1.41
2017-05-24T11:58:58.583Z,1.38
2017-05-24T11:59:58.564Z,1.85
2017-05-24T12:00:58.607Z,0.93
2017-05-24T12:01:58.615Z,2.36
2017-05-24T12:02:58.606Z,1.71
2017-05-24T12:03:58.629Z,1.24
2017-05-24T12:04:58.604Z,1.21
2017-05-24T12:05:58.601Z,1.11
2017-05-24T12:06:58.605Z,1.40
2017-05-24T12:07:58.585Z,0.75
2017-05-24T12:08:58.609Z,1.39
2017-05-24T12:09:58.589Z,0.83
2017-05-24T12:10:58.613Z,0.93
2017-05-24T12:11:58.591Z,1.84
2017-05-24T12:12:58.590Z,1.16
2017-05-24T12:13:58.593Z,0.92
2017-05-24T12:14:58.596Z,0.94
2017-05-24T12:15:58.588Z,0.83
2017-05-24T12:16:58.590Z,1.21
2017-05-24T12:17:58.597Z,2.23
2017-05-24T12:18:58.592Z,1.21
2017-05-24T12:19:58.509Z,1.22
2017-05-24T12:20:58.570Z,2.13
2017-05-24T12:21:58.617Z,1.85
2017-05-24T12:22:58.553Z,1.77
2017-05-24T12:23:58.519Z,1.01
2017-05-24T12:24:58.556Z,2.51
2017-05-24T12:25:58.569Z,2.43
2017-05-24T12:26:58.549Z,1.49
2017-05-24T12:27:58.518Z,0.64
2017-05-24T12:28:58.547Z,1.11
2017-05-24T12:29:58.593Z,1.03
2017-05-24T12:30:58.669Z,0.46
2017-05-24T12:31:58.640Z,0.92
2017-05-24T12:32:58.642Z,0.73
2017-05-24T12:33:58.642Z,0.92
2017-05-24T12:34:58.594Z,2.40
2017-05-24T12:35:58.598Z,1.86
2017-05-24T12:36:58.617Z,0.83
2017-05-24T12:37:58.620Z,1.11
2017-05-24T12:38:58.616Z,1.20
2017-05-24T12:39:58.604Z,1.11
2017-05-24T12:40:58.601Z,1.27
2017-05-24T12:41:58.607Z,1.50
2017-05-24T12:42:58.604Z,1.46
2017-05-24T12:43:58.608Z,1.07
2017-05-24T12:44:58.604Z,0.55
2017-05-24T12:45:58.605Z,2.05
2017-05-24T12:46:58.606Z,0.64
2017-05-24T12:47:58.609Z,1.09
2017-05-24T12:48:58.608Z,0.55
2017-05-24T12:49:58.602Z,0.64
2017-05-24T12:50:58.596Z,0.91
2017-05-24T12:51:58.598Z,0.74
2017-05-24T12:52:58.596Z,1.02
2017-05-24T12:53:58.606Z,1.02
2017-05-24T12:54:58.599Z,1.66
2017-05-24T12:55:58.602Z,1.31
2017-05-24T12:56:58.598Z,0.84
2017-05-24T12:57:58.599Z,1.03
2017-05-24T12:58:58.605Z,0.46
2017-05-24T12:59:58.606Z,1.11
2017-05-24T13:00:58.600Z,1.96
2017-05-24T13:01:58.608Z,1.21
2017-05-24T13:02:58.607Z,0.77
2017-05-24T13:03:58.607Z,1.01
2017-05-24T13:04:58.697Z,0.83
2017-05-24T13:05:58.605Z,1.21
2017-05-24T13:06:58.614Z,0.92
2017-05-24T13:07:58.609Z,1.04
2017-05-24T13:08:58.607Z,0.46
2017-05-24T13:09:58.633Z,0.83
2017-05-24T13:10:58.746Z,0.37
2017-05-24T13:11:58.664Z,0.83
2017-05-24T13:12:58.631Z,2.25
2017-05-24T13:13:58.637Z,1.30
2017-05-24T13:14:58.650Z,1.39
2017-05-24T13:15:58.747Z,1.02
2017-05-24T13:16:58.618Z,0.78
2017-05-24T13:17:58.640Z,1.21
2017-05-24T13:18:58.602Z,1.13
2017-05-24T13:19:58.614Z,1.37
2017-05-24T13:20:58.626Z,1.02